Flight Track Log - Related Links

Times and Time Zones

All times are in EDT time to prevent confusion due to time zone crossing. See the N143DE flight status page for this flight to view local times or setup timezone preferences in your user account.

Time Position Orientation Groundspeed Altitude Reporting Facility
EDT Latitude Longitude Course Direction KTS MPH feet Rate Location/Type
Sun 01:21:31 AM 33.6333 -84.5667 248° West 172 198 6,300  Level Atlanta TRACON
Sun 01:23:45 AM 33.6214 -84.7025 264° West 177 204 10,100 1,608 Climbing Atlanta Center
Sun 01:24:45 AM 33.6169 -84.7597 265° West 177 204 11,500 1,400 Climbing Atlanta Center
Sun 01:25:45 AM 33.6122 -84.8194 265° West 177 204 12,900 1,250 Climbing Atlanta Center
Sun 01:26:45 AM 33.6161 -84.8844 274° West 177 204 14,000 1,100 Climbing Atlanta Center
Sun 01:27:45 AM 33.6094 -84.9442 262° West 177 204 15,100 1,100 Climbing Atlanta Center
Sun 01:28:45 AM 33.6108 -85.0067 272° West 183 211 16,200 900 Climbing Atlanta Center
Sun 01:29:45 AM 33.6083 -85.0714 267° West 183 211 16,900 800 Climbing Atlanta Center
Sun 01:30:45 AM 33.6100 -85.1364 272° West 193 222 17,800 1,000 Climbing Atlanta Center
Sun 01:31:45 AM 33.6114 -85.1986 272° West 198 228 18,900 950 Climbing Atlanta Center
Sun 01:32:45 AM 33.6108 -85.2661 269° West 198 228 19,700 700 Climbing Atlanta Center
Sun 01:33:45 AM 33.6039 -85.3283 262° West 198 228 20,300 550 Climbing Atlanta Center
Sun 01:34:45 AM 33.6053 -85.3856 272° West 198 228 20,800 550 Climbing Atlanta Center
Sun 01:35:45 AM 33.6086 -85.4556 273° West 198 228 21,400 550 Climbing Atlanta Center
Sun 01:36:45 AM 33.6058 -85.5178 267° West 198 228 21,900 550 Climbing Atlanta Center
Sun 01:37:45 AM 33.6072 -85.5828 271° West 198 228 22,500 700 Climbing Atlanta Center
Sun 01:38:45 AM 33.6022 -85.6450 265° West 193 222 23,300 800 Climbing Atlanta Center
Sun 01:39:45 AM 33.6036 -85.7050 272° West 186 214 24,100 800 Climbing Atlanta Center
Sun 01:40:45 AM 33.6028 -85.7647 269° West 174 200 24,900 650 Climbing Atlanta Center
Sun 01:41:45 AM 33.6000 -85.8094 266° West 167 192 25,400 450 Climbing Atlanta Center
Sun 01:42:45 AM 33.5969 -85.8644 266° West 167 192 25,800 400 Climbing Atlanta Center
Sun 01:43:45 AM 33.5961 -85.9242 269° West 167 192 26,200 100 Climbing Atlanta Center
Sun 01:44:45 AM 33.5972 -85.9892 271° West 185 213 26,000 -100 Descending Atlanta Center
Sun 01:45:45 AM 33.5942 -86.0564 267° West 197 227 26,000  Level Atlanta Center
Sun 01:46:45 AM 33.5928 -86.1286 269° West 211 243 26,000  Level Atlanta Center
Sun 01:47:45 AM 33.5917 -86.2008 269° West 216 249 26,000  Level Atlanta Center
Sun 01:48:45 AM 33.5903 -86.2756 269° West 216 249 26,000  Level Atlanta Center
Sun 01:49:45 AM 33.5889 -86.3456 269° West 216 249 26,000  Level Atlanta Center
Sun 01:50:45 AM 33.5878 -86.4153 269° West 216 249 26,000  Level Atlanta Center
Sun 01:51:45 AM 33.5842 -86.4875 267° West 216 249 26,000  Level Atlanta Center
Sun 01:52:45 AM 33.5847 -86.5572 271° West 216 249 26,000  Level Atlanta Center
Sun 01:53:45 AM 33.5833 -86.6272 269° West 216 249 26,000  Level Atlanta Center
Sun 01:54:45 AM 33.5797 -86.7019 267° West 216 249 26,000  Level Atlanta Center
Sun 01:55:45 AM 33.5803 -86.7717 271° West 216 249 26,000  Level Atlanta Center
Sun 01:56:45 AM 33.5786 -86.8439 268° West 216 249 26,000  Level Atlanta Center
Sun 01:57:45 AM 33.5769 -86.9136 268° West 216 249 26,000  Level Atlanta Center
Sun 01:59:38 AM 33.5717 -87.0564 267° West 218 251 26,000  Level Memphis Center
Sun 02:00:38 AM 33.5692 -87.1286 268° West 218 251 26,000 50 Level Memphis Center
Sun 02:01:38 AM 33.5689 -87.1983 270° West 218 251 26,100 50 Climbing Memphis Center
Sun 02:02:38 AM 33.5644 -87.2708 266° West 218 251 26,100  Level Memphis Center
Sun 02:03:38 AM 33.5642 -87.3433 270° West 218 251 26,100  Level Memphis Center
Sun 02:04:38 AM 33.5617 -87.4131 268° West 218 251 26,100  Level Memphis Center
Sun 02:05:38 AM 33.5592 -87.4831 268° West 218 251 26,100  Level Memphis Center
Sun 02:06:38 AM 33.5567 -87.5528 268° West 218 251 26,100  Level Memphis Center
Sun 02:07:38 AM 33.5539 -87.6228 267° West 218 251 26,100  Level Memphis Center
Sun 02:08:38 AM 33.5533 -87.6925 269° West 218 251 26,100  Level Memphis Center
Sun 02:09:38 AM 33.5508 -87.7625 268° West 218 251 26,100  Level Memphis Center
Sun 02:10:38 AM 33.5481 -87.8322 267° West 218 251 26,100  Level Memphis Center
Sun 02:11:38 AM 33.5453 -87.9047 267° West 218 251 26,100  Level Memphis Center
Sun 02:12:38 AM 33.5444 -87.9744 269° West 218 251 26,100  Level Memphis Center
Sun 02:13:38 AM 33.5397 -88.0444 265° West 218 251 26,100  Level Memphis Center
Sun 02:14:38 AM 33.5367 -88.1142 267° West 218 251 26,100  Level Memphis Center
Sun 02:15:38 AM 33.5358 -88.1842 269° West 218 251 26,100  Level Memphis Center
Sun 02:16:38 AM 33.5372 -88.2589 271° West 218 251 26,100  Level Memphis Center
Sun 02:17:38 AM 33.5319 -88.3286 265° West 218 251 26,100  Level Memphis Center
Sun 02:18:38 AM 33.5269 -88.3986 265° West 218 251 26,100  Level Memphis Center
Sun 02:19:38 AM 33.5281 -88.4683 271° West 218 251 26,100  Level Memphis Center
Sun 02:20:38 AM 33.5250 -88.5406 267° West 218 251 26,100  Level Memphis Center
Sun 02:21:38 AM 33.5197 -88.6106 265° West 218 251 26,100  Level Memphis Center
Sun 02:22:38 AM 33.5186 -88.6803 269° West 218 251 26,100  Level Memphis Center
Sun 02:23:38 AM 33.5131 -88.7503 265° West 218 251 26,100  Level Memphis Center
Sun 02:24:38 AM 33.5119 -88.8200 269° West 218 251 26,100  Level Memphis Center
Sun 02:25:38 AM 33.5067 -88.8897 265° West 218 251 26,100  Level Memphis Center
Sun 02:26:38 AM 33.5072 -88.9594 271° West 218 251 26,100  Level Memphis Center
Sun 02:27:38 AM 33.5039 -89.0294 267° West 218 251 26,100  Level Memphis Center
Sun 02:28:38 AM 33.5006 -89.1017 267° West 218 251 26,100  Level Memphis Center
Sun 02:29:38 AM 33.4969 -89.1689 266° West 218 251 26,100  Level Memphis Center
Sun 02:30:38 AM 33.4933 -89.2339 266° West 218 251 26,100  Level Memphis Center
Sun 02:31:38 AM 33.4919 -89.3036 269° West 218 251 26,100  Level Memphis Center
Sun 02:32:38 AM 33.4883 -89.3733 266° West 218 251 26,100  Level Memphis Center
Sun 02:33:38 AM 33.4847 -89.4431 266° West 218 251 26,100  Level Memphis Center
Sun 02:34:38 AM 33.4811 -89.5128 266° West 218 251 26,100  Level Memphis Center
Sun 02:35:38 AM 33.4794 -89.5825 268° West 218 251 26,100  Level Memphis Center
Sun 02:36:38 AM 33.4736 -89.6525 264° West 218 251 26,100  Level Memphis Center
Sun 02:37:38 AM 33.4697 -89.7197 266° West 218 251 26,100  Level Memphis Center
Sun 02:38:38 AM 33.4658 -89.7919 266° West 218 251 26,100  Level Memphis Center
Sun 02:39:38 AM 33.4642 -89.8617 268° West 218 251 26,100  Level Memphis Center
Sun 02:40:38 AM 33.4581 -89.9339 264° West 218 251 26,100 -50 Level Memphis Center
Sun 02:41:38 AM 33.4542 -90.0011 266° West 218 251 26,000 -50 Descending Memphis Center
Sun 02:42:38 AM 33.4503 -90.0783 267° West 218 251 26,000  Level Memphis Center
Sun 02:43:38 AM 33.4503 -90.1506 270° West 218 251 26,000  Level Memphis Center
Sun 02:44:38 AM 33.4464 -90.2203 266° West 218 251 26,000  Level Memphis Center
Sun 02:45:38 AM 33.4400 -90.2900 264° West 218 251 26,000  Level Memphis Center
Sun 02:46:38 AM 33.4381 -90.3597 268° West 218 251 26,000  Level Memphis Center
Sun 02:47:38 AM 33.4317 -90.4294 264° West 218 251 26,000  Level Memphis Center
Sun 02:48:38 AM 33.4275 -90.4992 266° West 218 251 26,000  Level Memphis Center
Sun 02:49:38 AM 33.4253 -90.5689 268° West 218 251 26,000  Level Memphis Center
Sun 02:50:38 AM 33.4211 -90.6411 266° West 218 251 26,000  Level Memphis Center
Sun 02:51:38 AM 33.4167 -90.7106 266° West 218 251 26,000  Level Memphis Center
Sun 02:52:38 AM 33.4144 -90.7803 268° West 218 251 26,000  Level Memphis Center
Sun 02:53:38 AM 33.4100 -90.8475 265° West 218 251 26,000  Level Memphis Center
Sun 02:54:38 AM 33.4075 -90.9172 268° West 218 251 26,000  Level Memphis Center
Sun 02:55:38 AM 33.4031 -90.9794 265° West 218 251 26,000  Level Memphis Center
Sun 02:56:38 AM 33.3986 -91.0464 265° West 213 245 26,000  Level Memphis Center
Sun 02:57:38 AM 33.3939 -91.1186 266° West 213 245 26,000  Level Memphis Center
Sun 02:58:38 AM 33.3894 -91.1858 265° West 213 245 26,000 50 Level Memphis Center
Sun 02:59:38 AM 33.3869 -91.2528 267° West 213 245 26,100 50 Climbing Memphis Center
Sun 03:00:38 AM 33.3800 -91.3250 263° West 213 245 26,100  Level Memphis Center
Sun 03:01:38 AM 33.3753 -91.3944 265° West 218 251 26,100  Level Memphis Center
Sun 03:02:38 AM 33.3747 -91.4642 269° West 218 251 26,100  Level Memphis Center
Sun 03:03:38 AM 33.3678 -91.5339 263° West 218 251 26,100  Level Memphis Center
Sun 03:04:38 AM 33.3631 -91.6033 265° West 218 251 26,100  Level Memphis Center
Sun 03:05:38 AM 33.3581 -91.6731 265° West 218 251 26,100  Level Memphis Center
Sun 03:06:38 AM 33.3614 -91.7575 273° West 226 260 26,100  Level Memphis Center
Sun 03:07:38 AM 33.3583 -91.8297 267° West 226 260 26,100  Level Memphis Center
Sun 03:08:38 AM 33.3514 -91.9017 263° West 226 260 26,100  Level Memphis Center
Sun 03:09:38 AM 33.3461 -91.9736 265° West 226 260 26,100  Level Memphis Center
Sun 03:11:23 AM 33.3389 -92.0978 266° West 230 265 26,100  Level Fort Worth Center
Sun 03:12:23 AM 33.3336 -92.1700 265° West 217 250 26,100  Level Fort Worth Center
Sun 03:13:23 AM 33.3297 -92.2325 266° West 217 250 26,100  Level Fort Worth Center
Sun 03:14:23 AM 33.3244 -92.3050 265° West 223 257 26,100  Level Fort Worth Center
Sun 03:15:23 AM 33.3189 -92.3772 265° West 223 257 26,100  Level Fort Worth Center
Sun 03:16:23 AM 33.3114 -92.4497 263° West 218 251 26,100  Level Fort Worth Center
Sun 03:17:23 AM 33.3100 -92.5219 269° West 218 251 26,100  Level Fort Worth Center
Sun 03:18:23 AM 33.3025 -92.5944 263° West 218 251 26,100  Level Fort Worth Center
Sun 03:19:23 AM 33.2947 -92.6669 263° West 218 251 26,100  Level Fort Worth Center
Sun 03:20:23 AM 33.2914 -92.7392 267° West 218 251 26,100  Level Fort Worth Center
Sun 03:21:23 AM 33.2856 -92.8114 265° West 218 251 26,100  Level Fort Worth Center
Sun 03:22:23 AM 33.2797 -92.8814 264° West 218 251 26,100  Level Fort Worth Center
Sun 03:23:23 AM 33.2719 -92.9539 263° West 218 251 26,100  Level Fort Worth Center
Sun 03:24:23 AM 33.2683 -93.0261 267° West 218 251 26,100  Level Fort Worth Center
Sun 03:25:23 AM 33.2625 -93.0983 265° West 223 257 26,100  Level Fort Worth Center
Sun 03:26:23 AM 33.2567 -93.1731 265° West 223 257 26,100  Level Fort Worth Center
Sun 03:27:23 AM 33.2508 -93.2481 265° West 223 257 26,100  Level Fort Worth Center
Sun 03:28:23 AM 33.2428 -93.3203 262° West 223 257 26,100  Level Fort Worth Center
Sun 03:29:23 AM 33.2389 -93.3950 266° West 223 257 26,100  Level Fort Worth Center
Sun 03:30:23 AM 33.2328 -93.4697 264° West 223 257 26,100  Level Fort Worth Center
Sun 03:31:23 AM 33.2267 -93.5419 264° West 223 257 26,100  Level Fort Worth Center
Sun 03:32:23 AM 33.2206 -93.6119 264° West 218 251 26,100  Level Fort Worth Center
Sun 03:33:23 AM 33.2144 -93.6867 264° West 218 251 26,100  Level Fort Worth Center
Sun 03:34:23 AM 33.2083 -93.7589 264° West 218 251 26,100  Level Fort Worth Center
Sun 03:35:23 AM 33.2019 -93.8336 264° West 218 251 26,100  Level Fort Worth Center
Sun 03:36:23 AM 33.1958 -93.9058 264° West 218 251 26,100  Level Fort Worth Center
Sun 03:37:23 AM 33.1894 -93.9806 264° West 218 251 26,100  Level Fort Worth Center
Sun 03:38:23 AM 33.1833 -94.0603 265° West 218 251 26,100  Level Fort Worth Center
Sun 03:39:23 AM 33.1747 -94.1375 262° West 223 257 26,100  Level Fort Worth Center
Sun 03:40:23 AM 33.1706 -94.2094 266° West 223 257 26,100  Level Fort Worth Center
Sun 03:41:23 AM 33.1639 -94.2842 264° West 223 257 26,100  Level Fort Worth Center
Sun 03:42:23 AM 33.1575 -94.3589 264° West 223 257 26,100  Level Fort Worth Center
Sun 03:43:23 AM 33.1508 -94.4336 264° West 228 262 26,100  Level Fort Worth Center
Sun 03:44:23 AM 33.1442 -94.5081 264° West 228 262 26,100  Level Fort Worth Center
Sun 03:45:23 AM 33.1378 -94.5828 264° West 233 268 26,100  Level Fort Worth Center
Sun 03:46:23 AM 33.1289 -94.6600 262° West 233 268 26,100  Level Fort Worth Center
Sun 03:47:23 AM 33.1242 -94.7344 266° West 233 268 26,100  Level Fort Worth Center
Sun 03:48:23 AM 33.1175 -94.8117 264° West 233 268 26,100  Level Fort Worth Center
Sun 03:49:23 AM 33.1108 -94.8886 264° West 238 274 26,100  Level Fort Worth Center
Sun 03:50:23 AM 33.1017 -94.9633 262° West 238 274 26,100  Level Fort Worth Center
Sun 03:51:23 AM 33.0950 -95.0406 264° West 238 274 26,100 -200 Level Fort Worth Center
Sun 03:52:23 AM 33.0881 -95.1200 264° West 238 274 25,700 -650 Descending Fort Worth Center
Sun 03:53:23 AM 33.0811 -95.2019 264° West 243 280 24,800 -900 Descending Fort Worth Center
Sun 03:54:23 AM 33.0722 -95.2889 263° West 257 296 23,900 -1,100 Descending Fort Worth Center
Sun 03:55:23 AM 33.0653 -95.3758 265° West 262 302 22,600 -1,250 Descending Fort Worth Center
Sun 03:56:23 AM 33.0542 -95.4678 262° West 273 314 21,400 -1,250 Descending Fort Worth Center
Sun 03:57:23 AM 33.0472 -95.5572 265° West 273 314 20,100 -1,250 Descending Fort Worth Center
Sun 03:58:23 AM 33.0403 -95.6489 265° West 273 314 18,900 -1,250 Descending Fort Worth Center
Sun 03:59:23 AM 33.0311 -95.7408 263° West 273 314 17,600 -1,200 Descending Fort Worth Center
Sun 04:00:23 AM 33.0239 -95.8278 264° West 273 314 16,500 -1,300 Descending Fort Worth Center
Sun 04:01:23 AM 33.0144 -95.9169 263° West 273 314 15,000 -1,400 Descending Fort Worth Center
Sun 04:02:23 AM 33.0050 -96.0064 263° West 273 314 13,700 -1,350 Descending Fort Worth Center
Sun 04:03:23 AM 32.9956 -96.0958 263° West 273 314 12,300 -1,300 Descending Fort Worth Center
Sun 04:04:23 AM 32.9861 -96.1850 263° West 278 320 11,100 -700 Descending Fort Worth Center
Sun 04:05:23 AM 32.9764 -96.2669 262° West 263 303 10,900 -750 Descending Fort Worth Center
Sun 04:06:23 AM 32.9583 -96.3514 256° West 263 303 9,600 -1,400 Descending Fort Worth Center
Sun 04:07:23 AM 32.9422 -96.4406 258° West 263 303 8,100 -1,350 Descending Fort Worth Center
Sun 04:08:23 AM 32.9306 -96.5250 261° West 263 303 6,900 -1,400 Descending Fort Worth Center
Sun 04:09:23 AM 32.9206 -96.5992 261° West 258 297 5,300 -1,630 Descending Fort Worth Center
Sun 04:09:55 AM 32.9167 -96.6500 265° West 270 311 4,400 -1,239 Descending Dallas / Fort Worth TRACON
Sun 04:10:55 AM 32.9000 -96.7333 257° West 242 278 3,400 -700 Descending Dallas / Fort Worth TRACON
Sun 04:11:55 AM 32.9000 -96.8000 270° West 216 249 3,000 -300 Descending Dallas / Fort Worth TRACON
Sun 04:12:55 AM 32.8833 -96.8667 253° West 214 246 2,800 -500 Descending Dallas / Fort Worth TRACON
Sun 04:13:55 AM 32.8500 -96.9333 239° Southwest 209 241 2,000 -400 Descending Dallas / Fort Worth TRACON
Sun 04:14:55 AM 32.8167 -96.9667 220° Southwest 168 193 2,000 -48 Level Dallas / Fort Worth TRACON
Sun 04:16:01 AM 32.8167 -97.0167 270° West 122 140 1,900 -381 Descending Dallas / Fort Worth TRACON
Sun 04:17:01 AM 32.8500 -97.0333 337° Northwest 123 142 1,200 -700 Descending Dallas / Fort Worth TRACON
Sun 04:19:00 AM 32.8833 -97.0333 253° West  Level FlightAware Approximate
Sun 04:26:00 AM 32.8968 -97.0380 253° West  Level Estimated

Login

Don't have an account? Register now (free) for customized features, flight alerts, and more!